createdAt,value
2022-07-26T00:00:42.480Z,26.48
2022-07-26T00:03:09.099Z,26.47
2022-07-26T00:05:35.472Z,26.46
2022-07-26T00:08:02.184Z,26.45
2022-07-26T00:10:29.731Z,26.50
2022-07-26T00:12:56.083Z,26.52
2022-07-26T00:15:22.397Z,26.53
2022-07-26T00:17:48.727Z,26.50
2022-07-26T00:20:15.084Z,26.49
2022-07-26T00:22:41.529Z,26.51
2022-07-26T00:25:07.849Z,26.57
2022-07-26T00:27:34.201Z,26.62
2022-07-26T00:30:00.609Z,26.52
2022-07-26T00:32:26.888Z,26.50
2022-07-26T00:34:53.217Z,26.60
2022-07-26T00:37:20.552Z,26.60
2022-07-26T00:39:47.132Z,26.60
2022-07-26T00:42:13.645Z,26.57
2022-07-26T00:44:39.999Z,26.55
2022-07-26T00:47:06.310Z,26.50
2022-07-26T00:49:32.679Z,26.49
2022-07-26T00:51:59.009Z,26.50
2022-07-26T00:54:25.380Z,26.48
2022-07-26T00:56:55.077Z,26.57
2022-07-26T00:59:21.668Z,26.59
2022-07-26T01:01:48.210Z,26.59
2022-07-26T01:04:14.636Z,26.51
2022-07-26T01:06:40.958Z,26.52
2022-07-26T01:09:07.443Z,26.49
2022-07-26T01:11:34.061Z,26.47
2022-07-26T01:14:00.439Z,26.47
2022-07-26T01:16:27.006Z,26.45
2022-07-26T01:18:53.452Z,26.46
2022-07-26T01:21:19.967Z,26.46
2022-07-26T01:23:46.293Z,26.45
2022-07-26T01:26:12.708Z,26.53
2022-07-26T01:28:40.274Z,26.55
2022-07-26T01:31:06.588Z,26.52
2022-07-26T01:33:33.031Z,26.49
2022-07-26T01:35:59.430Z,26.56
2022-07-26T01:38:25.824Z,26.48
2022-07-26T01:40:52.241Z,26.47
2022-07-26T01:43:18.624Z,26.49
2022-07-26T01:45:45.114Z,26.47
2022-07-26T01:48:11.499Z,26.48
2022-07-26T01:50:37.771Z,26.47
2022-07-26T01:53:06.119Z,26.47
2022-07-26T01:55:32.923Z,26.48
2022-07-26T01:58:00.670Z,26.46
2022-07-26T02:00:27.092Z,26.55
2022-07-26T02:02:53.762Z,26.46
2022-07-26T02:05:20.302Z,26.48
2022-07-26T02:07:46.715Z,26.47
2022-07-26T02:10:14.535Z,26.47
2022-07-26T02:12:41.010Z,26.47
2022-07-26T02:15:07.542Z,26.52
2022-07-26T02:17:33.960Z,26.52
2022-07-26T02:20:00.292Z,26.48
2022-07-26T02:22:26.798Z,26.50
2022-07-26T02:24:53.504Z,26.51
2022-07-26T02:27:20.148Z,26.47
2022-07-26T02:29:46.751Z,26.47
2022-07-26T02:32:13.098Z,26.49
2022-07-26T02:34:39.494Z,26.51
2022-07-26T02:37:05.921Z,26.50
2022-07-26T02:39:32.321Z,26.46
2022-07-26T02:41:58.731Z,26.47
2022-07-26T02:44:25.075Z,26.51
2022-07-26T02:46:51.501Z,26.51
2022-07-26T02:49:18.088Z,26.48
2022-07-26T02:51:44.558Z,26.47
2022-07-26T02:54:11.334Z,26.46
2022-07-26T02:56:38.066Z,26.49
2022-07-26T02:59:04.744Z,26.45
2022-07-26T03:01:31.178Z,26.47
2022-07-26T03:03:57.521Z,26.43
2022-07-26T03:06:23.913Z,26.49
2022-07-26T03:08:50.522Z,26.47
2022-07-26T03:11:16.831Z,26.48
2022-07-26T03:13:43.133Z,26.48
2022-07-26T03:16:09.584Z,26.43
2022-07-26T03:18:36.055Z,26.44
2022-07-26T03:21:02.446Z,26.44
2022-07-26T03:23:28.780Z,26.44
2022-07-26T03:25:55.100Z,26.46
2022-07-26T03:28:21.480Z,26.43
2022-07-26T03:30:47.848Z,26.42
2022-07-26T03:33:14.272Z,26.44
2022-07-26T03:35:40.630Z,26.43
2022-07-26T03:38:06.944Z,26.40
2022-07-26T03:40:33.282Z,26.39
2022-07-26T03:42:59.569Z,26.39
2022-07-26T03:45:26.210Z,26.41
2022-07-26T03:47:52.555Z,26.40
2022-07-26T03:50:18.880Z,26.39
2022-07-26T03:52:45.307Z,26.41
2022-07-26T03:55:11.596Z,26.39
2022-07-26T03:57:37.877Z,26.38
2022-07-26T04:00:04.427Z,26.38
2022-07-26T04:02:30.832Z,26.39
2022-07-26T04:04:57.219Z,26.41
2022-07-26T04:07:23.531Z,26.39
2022-07-26T04:09:53.335Z,26.40
2022-07-26T04:12:21.188Z,26.36
2022-07-26T04:14:47.635Z,26.37
2022-07-26T04:17:14.155Z,26.34
2022-07-26T04:19:40.567Z,26.37
2022-07-26T04:22:07.052Z,26.35
2022-07-26T04:24:33.445Z,26.34
2022-07-26T04:27:00.372Z,26.36
2022-07-26T04:29:26.739Z,26.37
2022-07-26T04:31:53.209Z,26.34
2022-07-26T04:34:19.870Z,26.34
2022-07-26T04:36:46.557Z,26.35
2022-07-26T04:39:12.842Z,26.34
2022-07-26T04:41:39.192Z,26.32
2022-07-26T04:44:05.708Z,26.33
2022-07-26T04:46:32.329Z,26.32
2022-07-26T04:48:58.774Z,26.30
2022-07-26T04:51:25.391Z,26.31
2022-07-26T04:53:51.738Z,26.31
2022-07-26T04:56:18.050Z,26.33
2022-07-26T04:58:44.351Z,26.33
2022-07-26T05:01:11.328Z,26.31
2022-07-26T05:03:37.883Z,26.31
2022-07-26T05:06:04.493Z,26.30
2022-07-26T05:08:30.853Z,26.24
2022-07-26T05:10:57.182Z,26.28
2022-07-26T05:13:30.494Z,26.26
2022-07-26T05:15:57.700Z,26.22
2022-07-26T05:18:24.425Z,26.24
2022-07-26T05:20:50.776Z,26.26
2022-07-26T05:23:17.192Z,26.27
2022-07-26T05:25:43.528Z,26.28
2022-07-26T05:28:10.057Z,26.26
2022-07-26T05:30:36.518Z,26.24
2022-07-26T05:33:03.095Z,26.24
2022-07-26T05:35:29.471Z,26.24
2022-07-26T05:37:55.739Z,26.21
2022-07-26T05:40:22.026Z,26.22
2022-07-26T05:42:52.215Z,26.30
2022-07-26T05:45:18.615Z,26.24
2022-07-26T05:47:45.011Z,26.23
2022-07-26T05:50:11.379Z,26.24
2022-07-26T05:52:37.681Z,26.29
2022-07-26T05:55:04.025Z,26.31
2022-07-26T05:57:30.495Z,26.20
2022-07-26T05:59:57.371Z,26.20
2022-07-26T06:02:23.978Z,26.18
2022-07-26T06:04:50.400Z,26.16
2022-07-26T06:07:16.843Z,26.17
2022-07-26T06:09:43.193Z,26.15
2022-07-26T06:12:10.698Z,26.14
2022-07-26T06:14:37.057Z,26.14
2022-07-26T06:17:03.438Z,26.15
2022-07-26T06:19:29.838Z,26.14
2022-07-26T06:21:56.305Z,26.13
2022-07-26T06:24:22.753Z,26.14
2022-07-26T06:26:52.295Z,26.15
2022-07-26T06:29:21.264Z,26.16
2022-07-26T06:31:48.834Z,26.16
2022-07-26T06:34:15.217Z,26.15
2022-07-26T06:36:41.635Z,26.14
2022-07-26T06:39:08.415Z,26.15
2022-07-26T06:41:34.811Z,26.18
2022-07-26T06:44:01.217Z,26.16
2022-07-26T06:46:27.713Z,26.15
2022-07-26T06:48:54.054Z,26.15
2022-07-26T06:51:23.336Z,26.14
2022-07-26T06:53:49.670Z,26.15
2022-07-26T06:56:16.038Z,26.14
2022-07-26T06:58:42.455Z,26.13
2022-07-26T07:01:09.077Z,26.16
2022-07-26T07:03:35.729Z,26.24
2022-07-26T07:06:02.090Z,26.19
2022-07-26T07:08:28.666Z,26.15
2022-07-26T07:10:55.052Z,26.17
2022-07-26T07:13:21.376Z,26.19
2022-07-26T07:15:47.759Z,26.15
2022-07-26T07:18:14.067Z,26.21
2022-07-26T07:20:40.475Z,26.16
2022-07-26T07:23:06.759Z,26.15
2022-07-26T07:25:33.110Z,26.15
2022-07-26T07:27:59.680Z,26.15
2022-07-26T07:30:29.518Z,26.20
2022-07-26T07:32:55.815Z,26.16
2022-07-26T07:35:22.986Z,26.21
2022-07-26T07:37:53.634Z,26.18
2022-07-26T07:40:20.669Z,26.22
2022-07-26T07:42:47.029Z,26.16
2022-07-26T07:45:13.395Z,26.18
2022-07-26T07:47:39.844Z,26.16
2022-07-26T07:50:06.272Z,26.16
2022-07-26T07:52:32.626Z,26.16
2022-07-26T07:55:36.080Z,26.15
2022-07-26T07:57:45.308Z,26.17
2022-07-26T08:00:12.670Z,26.17
2022-07-26T08:02:42.535Z,26.16
2022-07-26T08:05:13.926Z,26.17
2022-07-26T08:07:40.979Z,26.16
2022-07-26T08:10:07.509Z,26.15
2022-07-26T08:12:33.872Z,26.15
2022-07-26T08:15:00.240Z,26.16
2022-07-26T08:17:26.686Z,26.16
2022-07-26T08:19:59.788Z,26.21
2022-07-26T08:22:27.083Z,26.18
2022-07-26T08:24:53.389Z,26.17
2022-07-26T08:27:19.698Z,26.18
2022-07-26T08:29:46.063Z,26.16
2022-07-26T08:32:12.712Z,26.21
2022-07-26T08:34:38.975Z,26.19
2022-07-26T08:37:17.184Z,26.18
2022-07-26T08:39:44.334Z,26.18
2022-07-26T08:42:10.724Z,26.20
2022-07-26T08:44:37.295Z,26.22
2022-07-26T08:47:03.683Z,26.21
2022-07-26T08:49:30.448Z,26.20
2022-07-26T08:51:57.471Z,26.25
2022-07-26T08:54:23.794Z,26.20
2022-07-26T08:56:50.156Z,26.30
2022-07-26T08:59:21.035Z,26.32
2022-07-26T09:01:48.290Z,26.33
2022-07-26T09:04:29.918Z,26.29
2022-07-26T09:06:57.748Z,26.26
2022-07-26T09:09:24.649Z,26.27
2022-07-26T09:11:50.974Z,26.28
2022-07-26T09:14:17.639Z,26.27
2022-07-26T09:16:44.058Z,26.31
2022-07-26T09:19:10.549Z,26.27
2022-07-26T09:21:37.360Z,26.27
2022-07-26T09:24:03.789Z,26.25
2022-07-26T09:26:30.169Z,26.22
2022-07-26T09:28:56.444Z,26.25
2022-07-26T09:31:22.782Z,26.24
2022-07-26T09:33:49.863Z,26.25
2022-07-26T09:36:16.551Z,26.27
2022-07-26T09:38:42.937Z,26.21
2022-07-26T09:41:09.433Z,26.26
2022-07-26T09:43:35.812Z,26.30
2022-07-26T09:46:02.462Z,26.32
2022-07-26T09:48:36.641Z,26.24
2022-07-26T09:51:12.570Z,26.23
2022-07-26T09:53:38.978Z,26.21
2022-07-26T09:56:05.324Z,26.22
2022-07-26T09:58:31.746Z,26.22
2022-07-26T10:01:02.316Z,26.26
2022-07-26T10:03:29.080Z,26.30
2022-07-26T10:05:55.422Z,26.28
2022-07-26T10:08:21.995Z,26.28
2022-07-26T10:10:48.369Z,26.32
2022-07-26T10:13:14.719Z,26.31
2022-07-26T10:15:41.182Z,26.30
2022-07-26T10:18:09.286Z,26.30
2022-07-26T10:20:42.837Z,26.27
2022-07-26T10:23:09.257Z,26.30
2022-07-26T10:25:35.882Z,26.32
2022-07-26T10:28:02.260Z,26.32
2022-07-26T10:30:40.284Z,26.34
2022-07-26T10:33:06.647Z,26.37
2022-07-26T10:35:33.019Z,26.41
2022-07-26T10:37:59.385Z,26.39
2022-07-26T10:40:25.742Z,26.39
2022-07-26T10:42:52.097Z,26.40
2022-07-26T10:45:18.635Z,26.40
2022-07-26T10:47:45.043Z,26.39
2022-07-26T10:50:11.573Z,26.39
2022-07-26T10:52:38.062Z,26.42
2022-07-26T10:55:04.741Z,26.41
2022-07-26T10:57:31.341Z,26.41
2022-07-26T10:59:57.725Z,26.42
2022-07-26T11:02:25.521Z,26.44
2022-07-26T11:04:52.013Z,26.46
2022-07-26T11:07:18.379Z,26.46
2022-07-26T11:09:44.678Z,26.45
2022-07-26T11:12:11.179Z,26.47
2022-07-26T11:14:37.540Z,26.48
2022-07-26T11:17:03.931Z,26.46
2022-07-26T11:19:30.312Z,26.47
2022-07-26T11:21:56.856Z,26.49
2022-07-26T11:24:23.392Z,26.50
2022-07-26T11:26:49.986Z,26.48
2022-07-26T11:29:17.601Z,26.46
2022-07-26T11:31:50.834Z,26.46
2022-07-26T11:34:26.190Z,26.47
2022-07-26T11:36:52.540Z,26.47
2022-07-26T11:39:19.006Z,26.48
2022-07-26T11:41:45.314Z,26.49
2022-07-26T11:44:11.928Z,26.52
2022-07-26T11:46:38.606Z,26.50
2022-07-26T11:49:05.266Z,26.49
2022-07-26T11:51:31.662Z,26.49
2022-07-26T11:53:57.975Z,26.50
2022-07-26T11:56:24.356Z,26.50
2022-07-26T11:58:50.648Z,26.47
2022-07-26T12:01:16.993Z,26.46
2022-07-26T12:03:43.466Z,26.49
2022-07-26T12:06:10.005Z,26.49
2022-07-26T12:08:36.390Z,26.47
2022-07-26T12:11:02.691Z,26.47
2022-07-26T12:13:29.185Z,26.47
2022-07-26T12:16:06.725Z,26.45
2022-07-26T12:18:33.496Z,26.45
2022-07-26T12:21:04.595Z,26.45
2022-07-26T12:23:31.818Z,26.46
2022-07-26T12:25:58.107Z,26.49
2022-07-26T12:28:24.506Z,26.48
2022-07-26T12:30:50.940Z,26.49
2022-07-26T12:33:17.327Z,26.45
2022-07-26T12:35:43.733Z,26.43
2022-07-26T12:38:10.087Z,26.41
2022-07-26T12:40:36.428Z,26.39
2022-07-26T12:43:03.108Z,26.40
2022-07-26T12:45:29.945Z,26.43
2022-07-26T12:47:56.432Z,26.42
2022-07-26T12:50:22.850Z,26.46
2022-07-26T12:52:49.441Z,26.47
2022-07-26T12:55:15.798Z,26.45
2022-07-26T12:57:46.173Z,26.46
2022-07-26T13:00:14.078Z,26.47
2022-07-26T13:02:40.734Z,26.46
2022-07-26T13:05:07.405Z,26.46
2022-07-26T13:07:34.199Z,26.48
2022-07-26T13:10:30.495Z,26.48
2022-07-26T13:12:47.109Z,26.46
2022-07-26T13:15:13.553Z,26.48
2022-07-26T13:17:40.025Z,26.48
2022-07-26T13:20:06.556Z,26.47
2022-07-26T13:22:32.926Z,26.48
2022-07-26T13:24:59.946Z,26.51
2022-07-26T13:27:35.938Z,26.49
2022-07-26T13:30:03.115Z,26.49
2022-07-26T13:32:29.775Z,26.49
2022-07-26T13:34:56.398Z,26.48
2022-07-26T13:37:22.740Z,26.48
2022-07-26T13:39:49.108Z,26.48
2022-07-26T13:42:15.768Z,26.49
2022-07-26T13:44:42.050Z,26.50
2022-07-26T13:47:08.359Z,26.49
2022-07-26T13:49:34.800Z,26.51
2022-07-26T13:52:01.322Z,26.50
2022-07-26T13:54:27.715Z,26.48
2022-07-26T13:56:54.067Z,26.48
2022-07-26T13:59:20.543Z,26.47
2022-07-26T14:01:47.774Z,26.49
2022-07-26T14:04:14.824Z,26.50
2022-07-26T14:06:41.637Z,26.50
2022-07-26T14:09:10.757Z,26.49
2022-07-26T14:11:37.484Z,26.52
2022-07-26T14:14:03.814Z,26.51
2022-07-26T14:16:30.306Z,26.51
2022-07-26T14:18:56.901Z,26.51
2022-07-26T14:21:24.313Z,26.50
2022-07-26T14:23:50.658Z,26.51
2022-07-26T14:26:16.991Z,26.51
2022-07-26T14:28:43.342Z,26.49
2022-07-26T14:31:09.767Z,26.50
2022-07-26T14:33:36.110Z,26.50
2022-07-26T14:36:02.922Z,26.52
2022-07-26T14:38:30.208Z,26.51
2022-07-26T14:40:56.672Z,26.50
2022-07-26T14:43:23.033Z,26.51
2022-07-26T14:45:49.474Z,26.51
2022-07-26T14:48:31.615Z,26.49
2022-07-26T14:51:10.128Z,26.51
2022-07-26T14:53:36.646Z,26.53
2022-07-26T14:56:03.059Z,26.51
2022-07-26T14:58:29.395Z,26.51
2022-07-26T15:00:55.790Z,26.48
2022-07-26T15:03:22.443Z,26.49
2022-07-26T15:05:48.823Z,26.49
2022-07-26T15:08:15.181Z,26.48
2022-07-26T15:10:41.713Z,26.49
2022-07-26T15:13:08.050Z,26.51
2022-07-26T15:15:34.394Z,26.49
2022-07-26T15:18:00.858Z,26.50
2022-07-26T15:20:27.184Z,26.47
2022-07-26T15:22:53.514Z,26.46
2022-07-26T15:25:20.578Z,26.50
2022-07-26T15:27:47.038Z,26.44
2022-07-26T15:30:13.761Z,26.47
2022-07-26T15:32:41.614Z,26.46
2022-07-26T15:35:07.918Z,26.46
2022-07-26T15:37:41.096Z,26.46
2022-07-26T15:40:07.569Z,26.46
2022-07-26T15:42:33.883Z,26.46
2022-07-26T15:45:00.456Z,26.47
2022-07-26T15:47:53.816Z,26.47
2022-07-26T15:50:22.068Z,26.46
2022-07-26T15:52:48.672Z,26.48
2022-07-26T15:55:15.166Z,26.46
2022-07-26T15:57:41.491Z,26.45
2022-07-26T16:00:11.698Z,26.45
2022-07-26T16:02:38.457Z,26.44
2022-07-26T16:05:04.833Z,26.44
2022-07-26T16:07:31.209Z,26.44
2022-07-26T16:09:57.986Z,26.43
2022-07-26T16:12:24.325Z,26.43
2022-07-26T16:14:50.807Z,26.42
2022-07-26T16:17:17.162Z,26.43
2022-07-26T16:19:43.721Z,26.44
2022-07-26T16:22:10.110Z,26.44
2022-07-26T16:24:36.532Z,26.45
2022-07-26T16:27:03.007Z,26.45
2022-07-26T16:29:29.357Z,26.47
2022-07-26T16:31:55.998Z,26.46
2022-07-26T16:34:24.853Z,26.46
2022-07-26T16:36:51.455Z,26.46
2022-07-26T16:39:17.957Z,26.46
2022-07-26T16:41:44.389Z,26.47
2022-07-26T16:44:11.040Z,26.48
2022-07-26T16:46:37.518Z,26.47
2022-07-26T16:49:04.730Z,26.48
2022-07-26T16:51:31.572Z,26.48
2022-07-26T16:53:57.948Z,26.49
2022-07-26T16:56:24.339Z,26.48
2022-07-26T16:58:50.839Z,26.50
2022-07-26T17:01:17.894Z,26.52
2022-07-26T17:03:44.261Z,26.55
2022-07-26T17:06:10.793Z,26.56
2022-07-26T17:08:37.156Z,26.56
2022-07-26T17:11:03.581Z,26.57
2022-07-26T17:13:29.945Z,26.57
2022-07-26T17:15:56.461Z,26.58
2022-07-26T17:18:22.875Z,26.55
2022-07-26T17:20:49.287Z,26.56
2022-07-26T17:23:15.829Z,26.57
2022-07-26T17:25:42.153Z,26.56
2022-07-26T17:28:08.531Z,26.58
2022-07-26T17:30:34.858Z,26.57
2022-07-26T17:33:01.530Z,26.59
2022-07-26T17:35:27.927Z,26.57
2022-07-26T17:37:54.751Z,26.56
2022-07-26T17:40:21.464Z,26.56
2022-07-26T17:42:52.196Z,26.56
2022-07-26T17:45:18.614Z,26.58
2022-07-26T17:47:44.979Z,26.55
2022-07-26T17:50:35.478Z,26.57
2022-07-26T17:52:57.930Z,26.55
2022-07-26T17:55:24.353Z,26.53
2022-07-26T17:57:51.080Z,26.56
2022-07-26T18:00:17.432Z,26.52
2022-07-26T18:02:43.789Z,26.51
2022-07-26T18:05:10.418Z,26.51
2022-07-26T18:07:36.970Z,26.53
2022-07-26T18:10:03.397Z,26.50
2022-07-26T18:12:29.690Z,26.47
2022-07-26T18:14:56.047Z,26.52
2022-07-26T18:17:22.417Z,26.52
2022-07-26T18:19:48.751Z,26.47
2022-07-26T18:22:17.017Z,26.51
2022-07-26T18:24:45.626Z,26.47
2022-07-26T18:27:11.930Z,26.48
2022-07-26T18:29:38.284Z,26.46
2022-07-26T18:32:04.794Z,26.45
2022-07-26T18:34:31.159Z,26.46
2022-07-26T18:36:57.560Z,26.46
2022-07-26T18:39:23.902Z,26.47
2022-07-26T18:41:50.249Z,26.47
2022-07-26T18:44:16.592Z,26.45
2022-07-26T18:46:43.125Z,26.47
2022-07-26T18:49:09.944Z,26.46
2022-07-26T18:51:44.994Z,26.46
2022-07-26T18:54:14.954Z,26.47
2022-07-26T18:56:41.263Z,26.46
2022-07-26T18:59:07.869Z,26.45
2022-07-26T19:01:34.447Z,26.47
2022-07-26T19:04:06.141Z,26.47
2022-07-26T19:06:32.971Z,26.46
2022-07-26T19:08:59.312Z,26.44
2022-07-26T19:11:26.022Z,26.45
2022-07-26T19:13:52.458Z,26.44
2022-07-26T19:16:18.986Z,26.44
2022-07-26T19:18:49.415Z,26.46
2022-07-26T19:21:17.487Z,26.44
2022-07-26T19:23:43.802Z,26.49
2022-07-26T19:26:10.222Z,26.45
2022-07-26T19:28:36.846Z,26.44
2022-07-26T19:31:03.390Z,26.45
2022-07-26T19:33:30.074Z,26.40
2022-07-26T19:35:56.465Z,26.40
2022-07-26T19:38:22.894Z,26.46
2022-07-26T19:40:49.298Z,26.35
2022-07-26T19:43:15.918Z,26.41
2022-07-26T19:45:42.333Z,26.30
2022-07-26T19:48:15.647Z,26.28
2022-07-26T19:50:42.123Z,26.20
2022-07-26T19:53:17.178Z,26.26
2022-07-26T19:55:43.958Z,26.19
2022-07-26T19:58:10.463Z,26.18
2022-07-26T20:00:46.687Z,26.27
2022-07-26T20:03:13.531Z,26.24
2022-07-26T20:05:40.178Z,26.19
2022-07-26T20:08:06.565Z,26.30
2022-07-26T20:10:32.920Z,26.23
2022-07-26T20:12:59.562Z,26.26
2022-07-26T20:15:25.940Z,26.20
2022-07-26T20:17:52.299Z,26.21
2022-07-26T20:20:18.790Z,26.28
2022-07-26T20:22:45.164Z,26.18
2022-07-26T20:25:11.488Z,26.18
2022-07-26T20:27:39.048Z,26.15
2022-07-26T20:30:05.467Z,26.19
2022-07-26T20:32:31.846Z,26.15
2022-07-26T20:34:58.214Z,26.17
2022-07-26T20:37:24.739Z,26.16
2022-07-26T20:39:51.170Z,26.15
2022-07-26T20:42:21.460Z,26.18
2022-07-26T20:44:48.434Z,26.20
2022-07-26T20:47:15.055Z,26.20
2022-07-26T20:49:41.476Z,26.14
2022-07-26T20:52:08.064Z,26.14
2022-07-26T20:54:34.465Z,26.14
2022-07-26T20:57:00.834Z,26.13
2022-07-26T20:59:30.813Z,26.11
2022-07-26T21:01:57.297Z,26.12
2022-07-26T21:04:23.902Z,26.13
2022-07-26T21:06:50.295Z,26.12
2022-07-26T21:09:17.040Z,26.10
2022-07-26T21:11:43.533Z,26.08
2022-07-26T21:14:09.888Z,26.05
2022-07-26T21:16:36.309Z,26.07
2022-07-26T21:19:02.739Z,26.06
2022-07-26T21:21:29.222Z,26.05
2022-07-26T21:23:55.548Z,26.06
2022-07-26T21:26:21.925Z,26.09
2022-07-26T21:28:48.391Z,26.04
2022-07-26T21:31:14.759Z,26.04
2022-07-26T21:33:41.131Z,26.02
2022-07-26T21:36:07.452Z,26.03
2022-07-26T21:38:33.884Z,26.02
2022-07-26T21:41:00.280Z,26.03
2022-07-26T21:43:26.695Z,26.03
2022-07-26T21:45:53.106Z,26.01
2022-07-26T21:48:19.854Z,26.00
2022-07-26T21:50:46.486Z,25.99
2022-07-26T21:53:13.058Z,25.98
2022-07-26T21:55:39.420Z,26.05
2022-07-26T21:58:05.931Z,26.00
2022-07-26T22:00:32.270Z,26.00
2022-07-26T22:02:58.803Z,25.98
2022-07-26T22:05:25.322Z,25.98
2022-07-26T22:07:51.732Z,25.97
2022-07-26T22:10:18.252Z,25.98
2022-07-26T22:12:46.257Z,25.94
2022-07-26T22:15:12.546Z,25.94
2022-07-26T22:17:38.971Z,25.94
2022-07-26T22:20:05.385Z,25.93
2022-07-26T22:22:31.739Z,25.92
2022-07-26T22:24:58.219Z,25.92
2022-07-26T22:27:24.731Z,25.91
2022-07-26T22:29:51.067Z,25.91
2022-07-26T22:32:17.379Z,25.89
2022-07-26T22:34:43.715Z,25.88
2022-07-26T22:37:09.994Z,25.89
2022-07-26T22:39:36.319Z,25.88
2022-07-26T22:42:15.308Z,25.87
2022-07-26T22:44:42.535Z,25.88
2022-07-26T22:47:08.879Z,25.86
2022-07-26T22:49:35.300Z,25.84
2022-07-26T22:52:01.663Z,25.87
2022-07-26T22:54:28.297Z,25.87
2022-07-26T22:56:54.657Z,25.85
2022-07-26T22:59:21.045Z,25.84
2022-07-26T23:01:47.972Z,25.83
2022-07-26T23:04:14.559Z,25.84
2022-07-26T23:06:40.960Z,25.82
2022-07-26T23:09:09.710Z,25.82
2022-07-26T23:11:36.399Z,25.82
2022-07-26T23:14:02.834Z,25.81
2022-07-26T23:16:29.485Z,25.81
2022-07-26T23:18:55.904Z,25.80
2022-07-26T23:21:22.291Z,25.80
2022-07-26T23:23:48.674Z,25.79
2022-07-26T23:26:14.990Z,25.79
2022-07-26T23:28:41.342Z,25.78
2022-07-26T23:31:07.800Z,25.78
2022-07-26T23:33:51.893Z,25.77
2022-07-26T23:36:19.922Z,25.78
2022-07-26T23:38:46.239Z,25.76
2022-07-26T23:41:12.607Z,25.77
2022-07-26T23:43:38.918Z,25.75
2022-07-26T23:46:05.369Z,25.75
2022-07-26T23:48:31.801Z,25.74
2022-07-26T23:50:58.395Z,25.74
2022-07-26T23:53:26.787Z,25.75
2022-07-26T23:55:53.639Z,25.74
2022-07-26T23:58:19.975Z,25.73
